Terminal Aerodrome Forecast
Issued by NWS

Home | Current Version | Previous Version | Text Only | Print | Product List | Glossary On
Versions: 1 2 3 4 5 6 7 8 9 10 11 12 13 14 15 16 17 18 19 20 21 22 23 24 25 26 27 28
000
FTUS42 KTAE 182300
TAFVLD
TAF
KVLD 182320Z 1900/1924 00000KT P6SM SCT250
     FM190900 00000KT 4SM BR SCT007 SCT250
      TEMPO 1909/1913 BKN007
     FM191300 12004KT P6SM BKN250
     FM191900 10006KT P6SM VCTS SCT050CB BKN250=

USA.gov is the U.S. government's official web portal to all federal, state and local government web resources and services.